Bergara, Spain
Current Conditions -  °F | °C
As of 11:00 PM on Tuesday 25 Nov 2014 (Local Time) from LEVT Reporting Station
Light Rain Light Rain  
Wind Chill: 11°   Ceiling: 2500
Heat Index: 11°   Visibility: 2.5mi
Dew Point: 11°   Wind: 1mph
Humidity: 100%   Direction: 240°WSW
Pressure: 30"   Gusts: NA
Location:  43.12°N, 2.42°W
Report Text: LEVT 252200Z 24001KT 4000 -RA SCT004 BKN025 11/11 Q1016
Loading
Personal Weather Stations






























Interactive Weather Map New forecast layout! Learn more

10-Day Weather Forecast

Advertisements
Track Severe Weather on mobile